sensor_id;sensor_type;location;lat;lon;timestamp;temperature;humidity
2024;DHT22;1016;48.770;9.154;2023-03-01T00:01:08;4.20;86.40
2024;DHT22;1016;48.770;9.154;2023-03-01T00:03:34;4.20;85.90
2024;DHT22;1016;48.770;9.154;2023-03-01T00:06:00;4.30;86.70
2024;DHT22;1016;48.770;9.154;2023-03-01T00:08:27;4.10;86.00
2024;DHT22;1016;48.770;9.154;2023-03-01T00:13:39;4.10;86.20
2024;DHT22;1016;48.770;9.154;2023-03-01T00:16:09;4.10;86.30
2024;DHT22;1016;48.770;9.154;2023-03-01T00:18:35;4.10;86.40
2024;DHT22;1016;48.770;9.154;2023-03-01T00:21:00;4.10;86.50
2024;DHT22;1016;48.770;9.154;2023-03-01T00:23:26;4.10;86.60
2024;DHT22;1016;48.770;9.154;2023-03-01T00:25:52;4.10;86.70
2024;DHT22;1016;48.770;9.154;2023-03-01T00:28:17;4.10;86.60
2024;DHT22;1016;48.770;9.154;2023-03-01T00:30:43;4.10;86.50
2024;DHT22;1016;48.770;9.154;2023-03-01T00:33:09;4.10;86.60
2024;DHT22;1016;48.770;9.154;2023-03-01T00:35:35;4.10;86.90
2024;DHT22;1016;48.770;9.154;2023-03-01T00:38:01;4.10;86.90
2024;DHT22;1016;48.770;9.154;2023-03-01T00:40:28;4.10;86.90
2024;DHT22;1016;48.770;9.154;2023-03-01T00:42:54;4.10;87.10
2024;DHT22;1016;48.770;9.154;2023-03-01T00:45:22;4.10;87.40
2024;DHT22;1016;48.770;9.154;2023-03-01T00:47:49;4.00;87.40
2024;DHT22;1016;48.770;9.154;2023-03-01T00:50:16;4.00;87.40
2024;DHT22;1016;48.770;9.154;2023-03-01T00:52:43;4.00;87.50
2024;DHT22;1016;48.770;9.154;2023-03-01T00:55:09;4.00;87.60
2024;DHT22;1016;48.770;9.154;2023-03-01T00:57:36;3.90;87.60
2024;DHT22;1016;48.770;9.154;2023-03-01T01:00:02;3.90;87.70
2024;DHT22;1016;48.770;9.154;2023-03-01T01:02:33;3.90;87.90
2024;DHT22;1016;48.770;9.154;2023-03-01T01:05:00;4.00;88.20
2024;DHT22;1016;48.770;9.154;2023-03-01T01:07:27;4.00;88.10
2024;DHT22;1016;48.770;9.154;2023-03-01T01:09:53;4.00;88.10
2024;DHT22;1016;48.770;9.154;2023-03-01T01:12:18;4.00;88.30
2024;DHT22;1016;48.770;9.154;2023-03-01T01:14:45;4.00;88.30
2024;DHT22;1016;48.770;9.154;2023-03-01T01:17:12;3.90;88.40
2024;DHT22;1016;48.770;9.154;2023-03-01T01:19:38;3.90;88.50
2024;DHT22;1016;48.770;9.154;2023-03-01T01:22:03;3.90;88.60
2024;DHT22;1016;48.770;9.154;2023-03-01T01:24:29;3.90;88.70
2024;DHT22;1016;48.770;9.154;2023-03-01T01:26:55;3.90;89.00
2024;DHT22;1016;48.770;9.154;2023-03-01T01:29:21;3.90;88.90
2024;DHT22;1016;48.770;9.154;2023-03-01T01:31:48;3.90;88.60
2024;DHT22;1016;48.770;9.154;2023-03-01T01:34:20;4.00;88.50
2024;DHT22;1016;48.770;9.154;2023-03-01T01:36:51;4.00;88.60
2024;DHT22;1016;48.770;9.154;2023-03-01T01:39:22;3.90;88.10
2024;DHT22;1016;48.770;9.154;2023-03-01T01:41:48;3.90;88.30
2024;DHT22;1016;48.770;9.154;2023-03-01T01:44:25;3.80;88.60
2024;DHT22;1016;48.770;9.154;2023-03-01T01:47:26;3.80;88.80
2024;DHT22;1016;48.770;9.154;2023-03-01T01:49:46;3.80;89.00
2024;DHT22;1016;48.770;9.154;2023-03-01T01:52:25;3.70;88.90
2024;DHT22;1016;48.770;9.154;2023-03-01T01:55:17;3.60;88.90
2024;DHT22;1016;48.770;9.154;2023-03-01T01:57:51;3.60;89.20
2024;DHT22;1016;48.770;9.154;2023-03-01T02:00:25;3.60;89.20
2024;DHT22;1016;48.770;9.154;2023-03-01T02:02:57;3.60;89.80
2024;DHT22;1016;48.770;9.154;2023-03-01T02:08:33;3.70;90.00
2024;DHT22;1016;48.770;9.154;2023-03-01T02:11:01;3.70;90.00
2024;DHT22;1016;48.770;9.154;2023-03-01T02:13:34;3.70;90.10
2024;DHT22;1016;48.770;9.154;2023-03-01T02:16:09;3.70;90.20
2024;DHT22;1016;48.770;9.154;2023-03-01T02:18:35;3.70;90.10
2024;DHT22;1016;48.770;9.154;2023-03-01T02:23:48;3.60;90.20
2024;DHT22;1016;48.770;9.154;2023-03-01T02:26:24;3.60;90.10
2024;DHT22;1016;48.770;9.154;2023-03-01T02:29:04;3.60;90.10
2024;DHT22;1016;48.770;9.154;2023-03-01T02:31:34;3.60;90.20
2024;DHT22;1016;48.770;9.154;2023-03-01T02:34:15;3.60;90.30
2024;DHT22;1016;48.770;9.154;2023-03-01T02:36:56;3.60;90.30
2024;DHT22;1016;48.770;9.154;2023-03-01T02:39:46;3.50;90.40
2024;DHT22;1016;48.770;9.154;2023-03-01T02:42:19;3.60;90.50
2024;DHT22;1016;48.770;9.154;2023-03-01T02:44:50;3.60;90.30
2024;DHT22;1016;48.770;9.154;2023-03-01T02:47:16;3.50;90.40
2024;DHT22;1016;48.770;9.154;2023-03-01T02:49:44;3.40;90.50
2024;DHT22;1016;48.770;9.154;2023-03-01T02:55:16;3.50;90.90
2024;DHT22;1016;48.770;9.154;2023-03-01T02:57:45;3.50;91.00
2024;DHT22;1016;48.770;9.154;2023-03-01T03:00:28;3.50;91.00
2024;DHT22;1016;48.770;9.154;2023-03-01T03:02:56;3.50;91.00
2024;DHT22;1016;48.770;9.154;2023-03-01T03:05:29;3.50;90.80
2024;DHT22;1016;48.770;9.154;2023-03-01T03:07:56;3.50;91.00
2024;DHT22;1016;48.770;9.154;2023-03-01T03:10:29;3.50;91.00
2024;DHT22;1016;48.770;9.154;2023-03-01T03:13:16;3.50;91.00
2024;DHT22;1016;48.770;9.154;2023-03-01T03:15:45;3.50;91.00
2024;DHT22;1016;48.770;9.154;2023-03-01T03:18:17;3.50;91.10
2024;DHT22;1016;48.770;9.154;2023-03-01T03:20:44;3.50;91.20
2024;DHT22;1016;48.770;9.154;2023-03-01T03:23:13;3.50;91.30
2024;DHT22;1016;48.770;9.154;2023-03-01T03:25:39;3.50;91.20
2024;DHT22;1016;48.770;9.154;2023-03-01T03:28:05;3.50;91.50
2024;DHT22;1016;48.770;9.154;2023-03-01T03:30:40;3.50;91.60
2024;DHT22;1016;48.770;9.154;2023-03-01T03:33:07;3.50;91.50
2024;DHT22;1016;48.770;9.154;2023-03-01T03:35:39;3.40;91.70
2024;DHT22;1016;48.770;9.154;2023-03-01T03:38:08;3.50;91.70
2024;DHT22;1016;48.770;9.154;2023-03-01T03:40:43;3.50;91.70
2024;DHT22;1016;48.770;9.154;2023-03-01T03:43:12;3.60;91.80
2024;DHT22;1016;48.770;9.154;2023-03-01T03:45:38;3.60;92.10
2024;DHT22;1016;48.770;9.154;2023-03-01T03:48:07;3.60;91.90
2024;DHT22;1016;48.770;9.154;2023-03-01T03:50:35;3.60;91.80
2024;DHT22;1016;48.770;9.154;2023-03-01T03:53:06;3.60;91.80
2024;DHT22;1016;48.770;9.154;2023-03-01T03:55:33;3.60;91.70
2024;DHT22;1016;48.770;9.154;2023-03-01T03:58:02;3.60;91.90
2024;DHT22;1016;48.770;9.154;2023-03-01T04:00:32;3.70;91.80
2024;DHT22;1016;48.770;9.154;2023-03-01T04:02:58;3.70;91.90
2024;DHT22;1016;48.770;9.154;2023-03-01T04:05:27;3.80;91.90
2024;DHT22;1016;48.770;9.154;2023-03-01T04:07:55;3.70;91.90
2024;DHT22;1016;48.770;9.154;2023-03-01T04:10:45;3.70;91.70
2024;DHT22;1016;48.770;9.154;2023-03-01T04:13:15;3.80;91.90
2024;DHT22;1016;48.770;9.154;2023-03-01T04:15:44;3.90;92.00
2024;DHT22;1016;48.770;9.154;2023-03-01T04:18:18;3.90;92.30
2024;DHT22;1016;48.770;9.154;2023-03-01T04:20:46;3.90;92.00
2024;DHT22;1016;48.770;9.154;2023-03-01T04:23:19;4.00;92.00
2024;DHT22;1016;48.770;9.154;2023-03-01T04:25:54;4.00;92.00
2024;DHT22;1016;48.770;9.154;2023-03-01T04:30:50;4.00;92.00
2024;DHT22;1016;48.770;9.154;2023-03-01T04:33:19;4.00;91.90
2024;DHT22;1016;48.770;9.154;2023-03-01T04:35:45;4.10;91.90
2024;DHT22;1016;48.770;9.154;2023-03-01T04:38:12;4.10;91.90
2024;DHT22;1016;48.770;9.154;2023-03-01T04:40:38;4.20;91.70
2024;DHT22;1016;48.770;9.154;2023-03-01T04:43:05;4.30;91.70
2024;DHT22;1016;48.770;9.154;2023-03-01T04:45:33;4.30;91.70
2024;DHT22;1016;48.770;9.154;2023-03-01T04:47:59;4.40;91.60
2024;DHT22;1016;48.770;9.154;2023-03-01T04:50:25;4.40;91.50
2024;DHT22;1016;48.770;9.154;2023-03-01T04:52:56;4.40;91.50
2024;DHT22;1016;48.770;9.154;2023-03-01T04:55:27;4.40;91.60
2024;DHT22;1016;48.770;9.154;2023-03-01T04:57:53;4.40;91.40
2024;DHT22;1016;48.770;9.154;2023-03-01T05:00:24;4.40;91.40
2024;DHT22;1016;48.770;9.154;2023-03-01T05:03:00;4.50;91.60
2024;DHT22;1016;48.770;9.154;2023-03-01T05:05:30;4.40;91.50
2024;DHT22;1016;48.770;9.154;2023-03-01T05:07:59;4.40;91.70
2024;DHT22;1016;48.770;9.154;2023-03-01T05:10:26;4.30;91.70
2024;DHT22;1016;48.770;9.154;2023-03-01T05:12:57;4.30;91.80
2024;DHT22;1016;48.770;9.154;2023-03-01T05:15:27;4.40;91.80
2024;DHT22;1016;48.770;9.154;2023-03-01T05:17:57;4.40;91.90
2024;DHT22;1016;48.770;9.154;2023-03-01T05:20:29;4.50;91.80
2024;DHT22;1016;48.770;9.154;2023-03-01T05:22:59;4.50;91.90
2024;DHT22;1016;48.770;9.154;2023-03-01T05:25:26;4.50;91.80
2024;DHT22;1016;48.770;9.154;2023-03-01T05:27:53;4.50;91.70
2024;DHT22;1016;48.770;9.154;2023-03-01T05:30:20;4.50;91.80
2024;DHT22;1016;48.770;9.154;2023-03-01T05:32:50;4.60;91.80
2024;DHT22;1016;48.770;9.154;2023-03-01T05:35:23;4.60;91.80
2024;DHT22;1016;48.770;9.154;2023-03-01T05:37:52;4.70;91.50
2024;DHT22;1016;48.770;9.154;2023-03-01T05:40:22;4.60;91.40
2024;DHT22;1016;48.770;9.154;2023-03-01T05:42:54;4.60;91.50
2024;DHT22;1016;48.770;9.154;2023-03-01T05:45:21;4.60;91.70
2024;DHT22;1016;48.770;9.154;2023-03-01T05:47:50;4.60;91.60
2024;DHT22;1016;48.770;9.154;2023-03-01T05:50:19;4.60;91.50
2024;DHT22;1016;48.770;9.154;2023-03-01T05:52:50;4.60;91.50
2024;DHT22;1016;48.770;9.154;2023-03-01T05:55:21;4.60;91.60
2024;DHT22;1016;48.770;9.154;2023-03-01T05:57:47;4.60;91.60
2024;DHT22;1016;48.770;9.154;2023-03-01T06:00:18;4.70;91.40
2024;DHT22;1016;48.770;9.154;2023-03-01T06:02:44;4.70;91.40
2024;DHT22;1016;48.770;9.154;2023-03-01T06:05:13;4.70;91.50
2024;DHT22;1016;48.770;9.154;2023-03-01T06:07:39;4.70;91.50
2024;DHT22;1016;48.770;9.154;2023-03-01T06:10:05;4.50;91.50
2024;DHT22;1016;48.770;9.154;2023-03-01T06:12:32;4.60;91.70
2024;DHT22;1016;48.770;9.154;2023-03-01T06:14:59;4.60;92.00
2024;DHT22;1016;48.770;9.154;2023-03-01T06:17:24;4.70;92.00
2024;DHT22;1016;48.770;9.154;2023-03-01T06:19:50;4.70;91.90
2024;DHT22;1016;48.770;9.154;2023-03-01T06:22:15;4.70;91.80
2024;DHT22;1016;48.770;9.154;2023-03-01T06:24:40;4.60;91.80
2024;DHT22;1016;48.770;9.154;2023-03-01T06:27:06;4.60;91.90
2024;DHT22;1016;48.770;9.154;2023-03-01T06:29:32;4.70;91.70
2024;DHT22;1016;48.770;9.154;2023-03-01T06:31:57;4.70;91.70
2024;DHT22;1016;48.770;9.154;2023-03-01T06:34:23;4.70;91.60
2024;DHT22;1016;48.770;9.154;2023-03-01T06:36:48;4.80;91.70
2024;DHT22;1016;48.770;9.154;2023-03-01T06:39:14;4.70;91.70
2024;DHT22;1016;48.770;9.154;2023-03-01T06:41:39;4.60;91.60
2024;DHT22;1016;48.770;9.154;2023-03-01T06:44:05;4.60;91.80
2024;DHT22;1016;48.770;9.154;2023-03-01T06:46:31;4.50;92.00
2024;DHT22;1016;48.770;9.154;2023-03-01T06:48:56;4.60;92.00
2024;DHT22;1016;48.770;9.154;2023-03-01T06:51:21;4.60;92.00
2024;DHT22;1016;48.770;9.154;2023-03-01T06:53:47;4.50;92.00
2024;DHT22;1016;48.770;9.154;2023-03-01T06:56:12;4.50;91.90
2024;DHT22;1016;48.770;9.154;2023-03-01T06:58:38;4.50;92.20
2024;DHT22;1016;48.770;9.154;2023-03-01T07:01:07;4.40;92.10
2024;DHT22;1016;48.770;9.154;2023-03-01T07:03:33;4.40;92.20
2024;DHT22;1016;48.770;9.154;2023-03-01T07:05:58;4.40;92.20
2024;DHT22;1016;48.770;9.154;2023-03-01T07:08:24;4.40;92.10
2024;DHT22;1016;48.770;9.154;2023-03-01T07:10:57;4.40;92.20
2024;DHT22;1016;48.770;9.154;2023-03-01T07:13:22;4.40;92.30
2024;DHT22;1016;48.770;9.154;2023-03-01T07:15:48;4.40;92.10
2024;DHT22;1016;48.770;9.154;2023-03-01T07:18:13;4.40;92.00
2024;DHT22;1016;48.770;9.154;2023-03-01T07:20:39;4.50;92.00
2024;DHT22;1016;48.770;9.154;2023-03-01T07:23:06;4.50;92.00
2024;DHT22;1016;48.770;9.154;2023-03-01T07:25:32;4.50;91.90
2024;DHT22;1016;48.770;9.154;2023-03-01T07:27:58;4.50;91.80
2024;DHT22;1016;48.770;9.154;2023-03-01T07:30:25;4.40;92.00
2024;DHT22;1016;48.770;9.154;2023-03-01T07:33:00;4.50;91.70
2024;DHT22;1016;48.770;9.154;2023-03-01T07:35:31;4.40;91.80
2024;DHT22;1016;48.770;9.154;2023-03-01T07:38:03;4.30;92.00
2024;DHT22;1016;48.770;9.154;2023-03-01T07:40:32;4.30;92.10
2024;DHT22;1016;48.770;9.154;2023-03-01T07:43:04;4.30;92.20
2024;DHT22;1016;48.770;9.154;2023-03-01T07:45:32;4.40;92.40
2024;DHT22;1016;48.770;9.154;2023-03-01T07:48:05;4.40;92.30
2024;DHT22;1016;48.770;9.154;2023-03-01T07:50:31;4.30;92.20
2024;DHT22;1016;48.770;9.154;2023-03-01T07:53:07;4.30;92.40
2024;DHT22;1016;48.770;9.154;2023-03-01T07:55:45;4.30;92.40
2024;DHT22;1016;48.770;9.154;2023-03-01T07:58:13;4.30;92.20
2024;DHT22;1016;48.770;9.154;2023-03-01T08:01:12;4.30;92.30
2024;DHT22;1016;48.770;9.154;2023-03-01T08:03:44;4.30;92.30
2024;DHT22;1016;48.770;9.154;2023-03-01T08:06:11;4.30;92.30
2024;DHT22;1016;48.770;9.154;2023-03-01T08:08:42;4.40;92.30
2024;DHT22;1016;48.770;9.154;2023-03-01T08:11:31;4.40;92.30
2024;DHT22;1016;48.770;9.154;2023-03-01T08:14:06;4.40;92.20
2024;DHT22;1016;48.770;9.154;2023-03-01T08:16:38;4.30;92.10
2024;DHT22;1016;48.770;9.154;2023-03-01T08:19:09;4.30;92.10
2024;DHT22;1016;48.770;9.154;2023-03-01T08:21:45;4.30;92.20
2024;DHT22;1016;48.770;9.154;2023-03-01T08:24:31;4.40;92.40
2024;DHT22;1016;48.770;9.154;2023-03-01T08:26:57;4.40;92.20
2024;DHT22;1016;48.770;9.154;2023-03-01T08:29:25;4.40;92.00
2024;DHT22;1016;48.770;9.154;2023-03-01T08:31:56;4.40;92.00
2024;DHT22;1016;48.770;9.154;2023-03-01T08:34:22;4.40;91.90
2024;DHT22;1016;48.770;9.154;2023-03-01T08:36:47;4.40;92.10
2024;DHT22;1016;48.770;9.154;2023-03-01T08:39:17;4.40;92.20
2024;DHT22;1016;48.770;9.154;2023-03-01T08:41:44;4.40;92.20
2024;DHT22;1016;48.770;9.154;2023-03-01T08:44:15;4.40;92.20
2024;DHT22;1016;48.770;9.154;2023-03-01T08:47:00;4.60;92.10
2024;DHT22;1016;48.770;9.154;2023-03-01T08:49:27;4.60;91.80
2024;DHT22;1016;48.770;9.154;2023-03-01T08:51:53;4.60;92.10
2024;DHT22;1016;48.770;9.154;2023-03-01T08:54:20;4.60;92.20
2024;DHT22;1016;48.770;9.154;2023-03-01T08:56:46;4.60;92.40
2024;DHT22;1016;48.770;9.154;2023-03-01T08:59:14;4.70;92.40
2024;DHT22;1016;48.770;9.154;2023-03-01T09:01:40;4.80;92.10
2024;DHT22;1016;48.770;9.154;2023-03-01T09:04:08;4.70;92.20
2024;DHT22;1016;48.770;9.154;2023-03-01T09:06:34;4.70;92.40
2024;DHT22;1016;48.770;9.154;2023-03-01T09:09:00;4.80;92.30
2024;DHT22;1016;48.770;9.154;2023-03-01T09:11:26;4.90;92.60
2024;DHT22;1016;48.770;9.154;2023-03-01T09:13:52;5.00;91.90
2024;DHT22;1016;48.770;9.154;2023-03-01T09:16:20;5.00;91.90
2024;DHT22;1016;48.770;9.154;2023-03-01T09:18:52;4.90;91.80
2024;DHT22;1016;48.770;9.154;2023-03-01T09:21:19;4.90;91.70
2024;DHT22;1016;48.770;9.154;2023-03-01T09:23:47;5.00;91.70
2024;DHT22;1016;48.770;9.154;2023-03-01T09:26:20;5.00;91.60
2024;DHT22;1016;48.770;9.154;2023-03-01T09:28:48;4.90;91.40
2024;DHT22;1016;48.770;9.154;2023-03-01T09:31:15;4.90;91.40
2024;DHT22;1016;48.770;9.154;2023-03-01T09:33:42;4.90;91.20
2024;DHT22;1016;48.770;9.154;2023-03-01T09:36:14;4.80;91.30
2024;DHT22;1016;48.770;9.154;2023-03-01T09:38:41;4.70;91.40
2024;DHT22;1016;48.770;9.154;2023-03-01T09:43:57;4.90;91.60
2024;DHT22;1016;48.770;9.154;2023-03-01T09:46:25;5.10;91.70
2024;DHT22;1016;48.770;9.154;2023-03-01T09:49:04;5.20;91.50
2024;DHT22;1016;48.770;9.154;2023-03-01T09:51:35;5.20;91.40
2024;DHT22;1016;48.770;9.154;2023-03-01T09:54:02;5.20;91.30
2024;DHT22;1016;48.770;9.154;2023-03-01T09:56:37;5.20;91.10
2024;DHT22;1016;48.770;9.154;2023-03-01T09:59:24;5.20;91.10
2024;DHT22;1016;48.770;9.154;2023-03-01T10:02:21;5.20;91.20
2024;DHT22;1016;48.770;9.154;2023-03-01T10:04:51;5.20;91.00
2024;DHT22;1016;48.770;9.154;2023-03-01T10:10:10;5.30;90.90
2024;DHT22;1016;48.770;9.154;2023-03-01T10:12:42;5.20;90.70
2024;DHT22;1016;48.770;9.154;2023-03-01T10:15:18;5.30;90.70
2024;DHT22;1016;48.770;9.154;2023-03-01T10:20:23;5.50;90.50
2024;DHT22;1016;48.770;9.154;2023-03-01T10:22:49;5.50;90.50
2024;DHT22;1016;48.770;9.154;2023-03-01T10:25:41;5.60;90.50
2024;DHT22;1016;48.770;9.154;2023-03-01T10:28:20;5.80;90.20
2024;DHT22;1016;48.770;9.154;2023-03-01T10:30:49;5.80;90.20
2024;DHT22;1016;48.770;9.154;2023-03-01T10:33:30;5.90;90.10
2024;DHT22;1016;48.770;9.154;2023-03-01T10:35:57;5.90;90.20
2024;DHT22;1016;48.770;9.154;2023-03-01T10:38:22;6.00;89.80
2024;DHT22;1016;48.770;9.154;2023-03-01T10:40:58;6.10;89.30
2024;DHT22;1016;48.770;9.154;2023-03-01T10:43:27;6.10;89.90
2024;DHT22;1016;48.770;9.154;2023-03-01T10:45:53;6.20;89.60
2024;DHT22;1016;48.770;9.154;2023-03-01T10:48:25;6.30;89.50
2024;DHT22;1016;48.770;9.154;2023-03-01T10:53:36;6.40;88.50
2024;DHT22;1016;48.770;9.154;2023-03-01T10:56:11;6.50;88.40
2024;DHT22;1016;48.770;9.154;2023-03-01T10:59:00;6.70;88.50
2024;DHT22;1016;48.770;9.154;2023-03-01T11:01:32;6.80;87.80
2024;DHT22;1016;48.770;9.154;2023-03-01T11:06:33;6.80;86.50
2024;DHT22;1016;48.770;9.154;2023-03-01T11:09:23;6.90;86.90
2024;DHT22;1016;48.770;9.154;2023-03-01T11:11:54;6.90;86.60
2024;DHT22;1016;48.770;9.154;2023-03-01T11:14:23;7.10;86.00
2024;DHT22;1016;48.770;9.154;2023-03-01T11:17:05;7.10;85.10
2024;DHT22;1016;48.770;9.154;2023-03-01T11:19:32;7.10;85.10
2024;DHT22;1016;48.770;9.154;2023-03-01T11:24:44;7.10;84.30
2024;DHT22;1016;48.770;9.154;2023-03-01T11:27:21;7.10;84.20
2024;DHT22;1016;48.770;9.154;2023-03-01T11:32:42;7.20;84.80
2024;DHT22;1016;48.770;9.154;2023-03-01T11:35:20;7.20;84.20
2024;DHT22;1016;48.770;9.154;2023-03-01T11:40:55;7.20;84.70
2024;DHT22;1016;48.770;9.154;2023-03-01T11:43:57;7.20;84.90
2024;DHT22;1016;48.770;9.154;2023-03-01T11:55:04;7.20;84.70
2024;DHT22;1016;48.770;9.154;2023-03-01T12:06:26;7.40;83.20
2024;DHT22;1016;48.770;9.154;2023-03-01T12:09:27;7.50;83.80
2024;DHT22;1016;48.770;9.154;2023-03-01T12:14:55;7.50;83.00
2024;DHT22;1016;48.770;9.154;2023-03-01T12:18:01;7.40;83.00
2024;DHT22;1016;48.770;9.154;2023-03-01T12:20:41;7.50;83.80
2024;DHT22;1016;48.770;9.154;2023-03-01T12:31:33;7.80;83.80
2024;DHT22;1016;48.770;9.154;2023-03-01T12:36:46;8.00;83.20
2024;DHT22;1016;48.770;9.154;2023-03-01T12:39:39;7.90;83.10
2024;DHT22;1016;48.770;9.154;2023-03-01T12:47:27;8.10;82.40
2024;DHT22;1016;48.770;9.154;2023-03-01T12:50:06;8.00;81.90
2024;DHT22;1016;48.770;9.154;2023-03-01T12:52:44;8.10;82.10
2024;DHT22;1016;48.770;9.154;2023-03-01T12:55:39;8.20;82.50
2024;DHT22;1016;48.770;9.154;2023-03-01T12:58:24;8.30;82.60
2024;DHT22;1016;48.770;9.154;2023-03-01T13:06:37;8.70;82.10
2024;DHT22;1016;48.770;9.154;2023-03-01T13:11:44;8.90;82.00
2024;DHT22;1016;48.770;9.154;2023-03-01T13:16:53;9.10;80.90
2024;DHT22;1016;48.770;9.154;2023-03-01T13:19:24;9.20;80.10
2024;DHT22;1016;48.770;9.154;2023-03-01T13:21:53;9.10;79.50
2024;DHT22;1016;48.770;9.154;2023-03-01T13:24:27;9.20;79.60
2024;DHT22;1016;48.770;9.154;2023-03-01T13:29:51;9.40;79.20
2024;DHT22;1016;48.770;9.154;2023-03-01T13:32:27;9.50;78.90
2024;DHT22;1016;48.770;9.154;2023-03-01T13:37:42;9.50;78.40
2024;DHT22;1016;48.770;9.154;2023-03-01T13:42:48;9.70;78.80
2024;DHT22;1016;48.770;9.154;2023-03-01T13:45:24;9.80;78.70
2024;DHT22;1016;48.770;9.154;2023-03-01T13:48:01;9.80;78.40
2024;DHT22;1016;48.770;9.154;2023-03-01T13:50:29;9.80;77.80
2024;DHT22;1016;48.770;9.154;2023-03-01T13:53:01;9.80;77.90
2024;DHT22;1016;48.770;9.154;2023-03-01T13:55:46;9.90;78.00
2024;DHT22;1016;48.770;9.154;2023-03-01T13:58:55;10.00;76.80
2024;DHT22;1016;48.770;9.154;2023-03-01T14:01:32;10.10;77.00
2024;DHT22;1016;48.770;9.154;2023-03-01T14:03:58;10.10;75.80
2024;DHT22;1016;48.770;9.154;2023-03-01T14:06:29;10.00;75.40
2024;DHT22;1016;48.770;9.154;2023-03-01T14:09:16;10.00;76.50
2024;DHT22;1016;48.770;9.154;2023-03-01T14:19:47;10.20;75.70
2024;DHT22;1016;48.770;9.154;2023-03-01T14:22:22;10.20;75.10
2024;DHT22;1016;48.770;9.154;2023-03-01T14:24:54;10.20;75.50
2024;DHT22;1016;48.770;9.154;2023-03-01T14:27:20;10.20;75.10
2024;DHT22;1016;48.770;9.154;2023-03-01T14:30:00;10.20;75.20
2024;DHT22;1016;48.770;9.154;2023-03-01T14:32:28;10.10;75.30
2024;DHT22;1016;48.770;9.154;2023-03-01T14:34:55;10.10;75.50
2024;DHT22;1016;48.770;9.154;2023-03-01T14:39:52;10.10;75.20
2024;DHT22;1016;48.770;9.154;2023-03-01T14:42:20;10.00;75.80
2024;DHT22;1016;48.770;9.154;2023-03-01T14:44:48;10.10;75.70
2024;DHT22;1016;48.770;9.154;2023-03-01T14:47:20;9.90;76.90
2024;DHT22;1016;48.770;9.154;2023-03-01T14:49:59;9.90;77.10
2024;DHT22;1016;48.770;9.154;2023-03-01T14:52:33;9.80;76.90
2024;DHT22;1016;48.770;9.154;2023-03-01T14:55:00;9.80;77.00
2024;DHT22;1016;48.770;9.154;2023-03-01T14:57:26;9.70;77.00
2024;DHT22;1016;48.770;9.154;2023-03-01T15:00:03;9.70;77.00
2024;DHT22;1016;48.770;9.154;2023-03-01T15:02:32;9.60;77.30
2024;DHT22;1016;48.770;9.154;2023-03-01T15:05:01;9.60;77.50
2024;DHT22;1016;48.770;9.154;2023-03-01T15:07:32;9.50;77.70
2024;DHT22;1016;48.770;9.154;2023-03-01T15:09:59;9.50;77.50
2024;DHT22;1016;48.770;9.154;2023-03-01T15:14:55;9.60;77.50
2024;DHT22;1016;48.770;9.154;2023-03-01T15:17:32;9.40;77.60
2024;DHT22;1016;48.770;9.154;2023-03-01T15:19:58;9.40;78.20
2024;DHT22;1016;48.770;9.154;2023-03-01T15:22:26;9.50;78.40
2024;DHT22;1016;48.770;9.154;2023-03-01T15:24:52;9.40;77.80
2024;DHT22;1016;48.770;9.154;2023-03-01T15:27:21;9.40;78.00
2024;DHT22;1016;48.770;9.154;2023-03-01T15:30:06;9.30;77.90
2024;DHT22;1016;48.770;9.154;2023-03-01T15:32:36;9.20;78.40
2024;DHT22;1016;48.770;9.154;2023-03-01T15:37:59;9.10;78.50
2024;DHT22;1016;48.770;9.154;2023-03-01T15:40:29;9.10;78.90
2024;DHT22;1016;48.770;9.154;2023-03-01T15:43:04;9.10;79.00
2024;DHT22;1016;48.770;9.154;2023-03-01T15:45:31;9.10;79.10
2024;DHT22;1016;48.770;9.154;2023-03-01T15:48:02;9.10;79.20
2024;DHT22;1016;48.770;9.154;2023-03-01T15:50:33;9.10;79.20
2024;DHT22;1016;48.770;9.154;2023-03-01T15:53:00;9.10;79.30
2024;DHT22;1016;48.770;9.154;2023-03-01T15:55:29;9.10;79.20
2024;DHT22;1016;48.770;9.154;2023-03-01T15:58:04;9.10;79.10
2024;DHT22;1016;48.770;9.154;2023-03-01T16:00:32;9.00;79.30
2024;DHT22;1016;48.770;9.154;2023-03-01T16:02:58;9.00;78.40
2024;DHT22;1016;48.770;9.154;2023-03-01T16:05:30;8.90;78.20
2024;DHT22;1016;48.770;9.154;2023-03-01T16:07:56;8.90;78.30
2024;DHT22;1016;48.770;9.154;2023-03-01T16:10:22;8.90;78.30
2024;DHT22;1016;48.770;9.154;2023-03-01T16:12:50;8.90;78.50
2024;DHT22;1016;48.770;9.154;2023-03-01T16:15:23;8.90;78.10
2024;DHT22;1016;48.770;9.154;2023-03-01T16:17:49;8.90;77.90
2024;DHT22;1016;48.770;9.154;2023-03-01T16:20:15;8.80;78.00
2024;DHT22;1016;48.770;9.154;2023-03-01T16:22:44;8.80;78.20
2024;DHT22;1016;48.770;9.154;2023-03-01T16:25:12;8.80;78.00
2024;DHT22;1016;48.770;9.154;2023-03-01T16:27:38;8.80;77.90
2024;DHT22;1016;48.770;9.154;2023-03-01T16:30:05;8.80;77.90
2024;DHT22;1016;48.770;9.154;2023-03-01T16:32:31;8.70;77.90
2024;DHT22;1016;48.770;9.154;2023-03-01T16:34:57;8.70;78.00
2024;DHT22;1016;48.770;9.154;2023-03-01T16:37:22;8.70;78.20
2024;DHT22;1016;48.770;9.154;2023-03-01T16:39:48;8.70;78.10
2024;DHT22;1016;48.770;9.154;2023-03-01T16:42:16;8.70;78.30
2024;DHT22;1016;48.770;9.154;2023-03-01T16:44:42;8.70;78.50
2024;DHT22;1016;48.770;9.154;2023-03-01T16:47:07;8.70;78.70
2024;DHT22;1016;48.770;9.154;2023-03-01T16:49:33;8.70;78.80
2024;DHT22;1016;48.770;9.154;2023-03-01T16:51:58;8.60;78.90
2024;DHT22;1016;48.770;9.154;2023-03-01T16:54:24;8.60;78.90
2024;DHT22;1016;48.770;9.154;2023-03-01T16:56:50;8.60;78.70
2024;DHT22;1016;48.770;9.154;2023-03-01T16:59:15;8.60;78.80
2024;DHT22;1016;48.770;9.154;2023-03-01T17:01:43;8.60;79.70
2024;DHT22;1016;48.770;9.154;2023-03-01T17:04:11;8.60;78.90
2024;DHT22;1016;48.770;9.154;2023-03-01T17:06:37;8.50;79.00
2024;DHT22;1016;48.770;9.154;2023-03-01T17:09:03;8.50;79.10
2024;DHT22;1016;48.770;9.154;2023-03-01T17:11:28;8.50;79.40
2024;DHT22;1016;48.770;9.154;2023-03-01T17:13:54;8.50;79.40
2024;DHT22;1016;48.770;9.154;2023-03-01T17:16:20;8.50;79.50
2024;DHT22;1016;48.770;9.154;2023-03-01T17:18:46;8.40;79.50
2024;DHT22;1016;48.770;9.154;2023-03-01T17:21:12;8.40;79.80
2024;DHT22;1016;48.770;9.154;2023-03-01T17:23:40;8.40;79.80
2024;DHT22;1016;48.770;9.154;2023-03-01T17:26:07;8.40;79.90
2024;DHT22;1016;48.770;9.154;2023-03-01T17:28:34;8.40;80.10
2024;DHT22;1016;48.770;9.154;2023-03-01T17:31:00;8.40;80.30
2024;DHT22;1016;48.770;9.154;2023-03-01T17:33:27;8.40;80.30
2024;DHT22;1016;48.770;9.154;2023-03-01T17:35:55;8.40;80.40
2024;DHT22;1016;48.770;9.154;2023-03-01T17:38:21;8.30;80.50
2024;DHT22;1016;48.770;9.154;2023-03-01T17:40:46;8.30;80.50
2024;DHT22;1016;48.770;9.154;2023-03-01T17:43:13;8.20;80.50
2024;DHT22;1016;48.770;9.154;2023-03-01T17:45:39;8.20;80.50
2024;DHT22;1016;48.770;9.154;2023-03-01T17:48:05;8.10;80.50
2024;DHT22;1016;48.770;9.154;2023-03-01T17:50:32;8.10;80.80
2024;DHT22;1016;48.770;9.154;2023-03-01T17:52:58;8.10;80.90
2024;DHT22;1016;48.770;9.154;2023-03-01T17:55:23;8.00;81.00
2024;DHT22;1016;48.770;9.154;2023-03-01T17:57:49;8.00;81.10
2024;DHT22;1016;48.770;9.154;2023-03-01T18:00:15;8.00;81.10
2024;DHT22;1016;48.770;9.154;2023-03-01T18:02:42;7.90;80.80
2024;DHT22;1016;48.770;9.154;2023-03-01T18:05:08;7.90;80.80
2024;DHT22;1016;48.770;9.154;2023-03-01T18:07:34;7.90;81.20
2024;DHT22;1016;48.770;9.154;2023-03-01T18:10:00;7.90;81.50
2024;DHT22;1016;48.770;9.154;2023-03-01T18:12:25;7.90;81.50
2024;DHT22;1016;48.770;9.154;2023-03-01T18:14:51;7.80;81.20
2024;DHT22;1016;48.770;9.154;2023-03-01T18:17:19;7.80;81.50
2024;DHT22;1016;48.770;9.154;2023-03-01T18:19:45;7.80;82.00
2024;DHT22;1016;48.770;9.154;2023-03-01T18:22:10;7.70;82.20
2024;DHT22;1016;48.770;9.154;2023-03-01T18:24:37;7.70;82.30